createdAt,value
2022-07-30T00:00:00.990Z,91.61
2022-07-30T00:01:03.241Z,91.86
2022-07-30T00:02:03.357Z,92.06
2022-07-30T00:03:01.911Z,92.16
2022-07-30T00:04:02.232Z,92.36
2022-07-30T00:05:04.256Z,92.57
2022-07-30T00:06:02.639Z,92.57
2022-07-30T00:07:04.821Z,92.57
2022-07-30T00:08:04.064Z,92.66
2022-07-30T00:09:03.580Z,92.66
2022-07-30T00:10:03.885Z,92.77
2022-07-30T00:11:06.075Z,92.86
2022-07-30T00:12:07.258Z,92.97
2022-07-30T00:13:06.454Z,93.07
2022-07-30T00:14:06.638Z,93.07
2022-07-30T00:15:05.402Z,93.07
2022-07-30T00:16:07.649Z,93.17
2022-07-30T00:17:07.884Z,93.17
2022-07-30T00:18:08.226Z,93.17
2022-07-30T00:19:08.205Z,93.27
2022-07-30T00:20:06.948Z,93.41
2022-07-30T00:21:09.129Z,93.37
2022-07-30T00:22:07.501Z,93.37
2022-07-30T00:23:10.820Z,93.41
2022-07-30T00:24:08.101Z,93.62
2022-07-30T00:25:08.407Z,93.82
2022-07-30T00:26:10.585Z,93.92
2022-07-30T00:27:10.740Z,93.82
2022-07-30T00:28:11.105Z,93.92
2022-07-30T00:29:11.105Z,93.92
2022-07-30T00:30:11.331Z,93.92
2022-07-30T00:31:12.053Z,93.92
2022-07-30T00:32:10.432Z,93.92
2022-07-30T00:33:11.649Z,94.02
2022-07-30T00:34:11.036Z,94.02
2022-07-30T00:35:11.339Z,94.02
2022-07-30T00:36:13.526Z,94.02
2022-07-30T00:37:11.910Z,94.12
2022-07-30T00:38:13.224Z,94.12
2022-07-30T00:39:12.466Z,94.23
2022-07-30T00:40:12.779Z,94.23
2022-07-30T00:41:13.087Z,94.23
2022-07-30T00:42:15.264Z,94.23
2022-07-30T00:43:16.586Z,94.23
2022-07-30T00:44:14.005Z,94.12
2022-07-30T00:45:14.306Z,94.12
2022-07-30T00:46:18.082Z,94.12
2022-07-30T00:47:18.135Z,94.12
2022-07-30T00:48:17.123Z,94.23
2022-07-30T00:49:15.464Z,94.32
2022-07-30T00:50:16.689Z,94.32
2022-07-30T00:51:19.277Z,94.43
2022-07-30T00:52:16.201Z,94.53
2022-07-30T00:53:18.434Z,94.53
2022-07-30T00:54:17.828Z,94.63
2022-07-30T00:55:17.989Z,94.63
2022-07-30T00:56:19.229Z,94.83
2022-07-30T00:57:19.409Z,94.83
2022-07-30T00:58:19.744Z,94.93
2022-07-30T00:59:18.257Z,95.03
2022-07-30T01:00:18.573Z,95.03
2022-07-30T01:01:20.375Z,95.14
2022-07-30T01:02:19.172Z,95.14
2022-07-30T01:03:23.270Z,95.28
2022-07-30T01:04:19.692Z,95.38
2022-07-30T01:05:20.001Z,95.58
2022-07-30T01:06:22.209Z,95.68
2022-07-30T01:07:20.586Z,95.78
2022-07-30T01:08:22.880Z,95.98
2022-07-30T01:09:21.272Z,95.98
2022-07-30T01:10:21.585Z,96.09
2022-07-30T01:11:21.893Z,96.29
2022-07-30T01:12:22.207Z,96.29
2022-07-30T01:13:23.428Z,96.29
2022-07-30T01:14:22.836Z,96.29
2022-07-30T01:15:23.151Z,96.39
2022-07-30T01:16:23.526Z,96.29
2022-07-30T01:17:23.718Z,96.39
2022-07-30T01:18:26.016Z,96.49
2022-07-30T01:19:24.293Z,96.49
2022-07-30T01:20:24.602Z,96.59
2022-07-30T01:21:24.912Z,96.69
2022-07-30T01:22:25.234Z,96.80
2022-07-30T01:23:30.406Z,96.80
2022-07-30T01:24:25.873Z,96.89
2022-07-30T01:25:28.017Z,96.80
2022-07-30T01:26:26.415Z,96.80
2022-07-30T01:27:28.601Z,96.80
2022-07-30T01:28:28.898Z,96.80
2022-07-30T01:29:28.991Z,96.80
2022-07-30T01:30:29.184Z,96.89
2022-07-30T01:31:29.911Z,96.89
2022-07-30T01:32:30.052Z,97.00
2022-07-30T01:33:30.463Z,97.00
2022-07-30T01:34:30.444Z,97.10
2022-07-30T01:35:31.110Z,97.20
2022-07-30T01:36:29.493Z,97.20
2022-07-30T01:37:31.674Z,97.20
2022-07-30T01:38:31.174Z,97.20
2022-07-30T01:39:32.242Z,97.16
2022-07-30T01:40:30.645Z,97.05
2022-07-30T01:41:30.922Z,96.95
2022-07-30T01:42:31.230Z,97.05
2022-07-30T01:43:33.076Z,97.16
2022-07-30T01:44:33.788Z,97.20
2022-07-30T01:45:41.358Z,97.30
2022-07-30T01:46:33.379Z,97.40
2022-07-30T01:47:32.616Z,97.50
2022-07-30T01:48:35.946Z,97.50
2022-07-30T01:49:33.213Z,97.50
2022-07-30T01:50:35.395Z,97.60
2022-07-30T01:51:37.650Z,97.60
2022-07-30T01:52:34.095Z,97.80
2022-07-30T01:53:38.207Z,97.91
2022-07-30T01:54:36.436Z,98.01
2022-07-30T01:55:36.617Z,98.01
2022-07-30T01:56:36.797Z,98.21
2022-07-30T01:57:35.547Z,98.31
2022-07-30T01:58:39.714Z,98.51
2022-07-30T01:59:36.116Z,98.61
2022-07-30T02:00:36.493Z,98.71
2022-07-30T02:01:38.577Z,98.82
2022-07-30T02:02:38.758Z,98.92
2022-07-30T02:03:38.975Z,99.12
2022-07-30T02:04:37.569Z,99.22
2022-07-30T02:05:37.880Z,99.42
2022-07-30T02:06:40.046Z,99.52
2022-07-30T02:07:40.228Z,99.62
2022-07-30T02:08:40.410Z,99.83
2022-07-30T02:09:39.039Z,99.93
2022-07-30T02:10:39.353Z,99.99
2022-07-30T02:11:41.525Z,99.99
2022-07-30T02:12:41.729Z,99.99
2022-07-30T02:13:41.906Z,99.99
2022-07-30T02:14:40.542Z,99.99
2022-07-30T02:15:40.838Z,99.99
2022-07-30T02:16:43.058Z,99.99
2022-07-30T02:17:45.065Z,99.99
2022-07-30T02:18:41.761Z,99.99
2022-07-30T02:19:42.069Z,99.99
2022-07-30T02:20:44.266Z,99.99
2022-07-30T02:21:50.291Z,99.99
2022-07-30T02:22:43.997Z,99.99
2022-07-30T02:23:45.147Z,99.99
2022-07-30T02:24:43.539Z,99.99
2022-07-30T02:25:45.725Z,99.99
2022-07-30T02:26:44.114Z,99.99
2022-07-30T02:27:44.433Z,99.99
2022-07-30T02:28:48.588Z,99.99
2022-07-30T02:29:45.001Z,99.99
2022-07-30T02:30:48.619Z,99.99
2022-07-30T02:31:47.395Z,99.99
2022-07-30T02:32:48.992Z,99.99
2022-07-30T02:33:49.060Z,99.99
2022-07-30T02:34:46.566Z,99.99
2022-07-30T02:35:46.870Z,99.99
2022-07-30T02:36:47.189Z,99.99
2022-07-30T02:37:49.361Z,99.99
2022-07-30T02:38:47.750Z,99.99
2022-07-30T02:39:48.049Z,99.99
2022-07-30T02:40:48.359Z,99.99
2022-07-30T02:41:49.942Z,99.99
2022-07-30T02:42:51.366Z,99.99
2022-07-30T02:43:49.258Z,99.99
2022-07-30T02:44:49.572Z,99.99
2022-07-30T02:45:49.879Z,99.99
2022-07-30T02:46:50.186Z,99.99
2022-07-30T02:47:54.274Z,99.99
2022-07-30T02:48:50.703Z,99.99
2022-07-30T02:49:50.993Z,99.99
2022-07-30T02:50:51.304Z,99.99
2022-07-30T02:51:52.417Z,99.99
2022-07-30T02:52:55.596Z,99.99
2022-07-30T02:53:52.262Z,99.99
2022-07-30T02:54:53.411Z,99.99
2022-07-30T02:55:52.909Z,99.99
2022-07-30T02:56:53.202Z,99.99
2022-07-30T02:57:55.429Z,99.99
2022-07-30T02:58:55.581Z,99.99
2022-07-30T02:59:54.085Z,99.99
2022-07-30T03:00:54.459Z,99.99
2022-07-30T03:01:54.773Z,99.99
2022-07-30T03:02:56.885Z,99.99
2022-07-30T03:03:56.826Z,99.99
2022-07-30T03:04:55.574Z,99.99
2022-07-30T03:05:55.880Z,99.99
2022-07-30T03:06:56.203Z,99.99
2022-07-30T03:07:57.548Z,99.99
2022-07-30T03:08:58.700Z,99.99
2022-07-30T03:09:57.086Z,99.99
2022-07-30T03:10:57.408Z,99.99
2022-07-30T03:11:57.721Z,99.99
2022-07-30T03:12:58.848Z,99.99
2022-07-30T03:14:00.249Z,99.99
2022-07-30T03:14:58.647Z,99.99
2022-07-30T03:16:00.931Z,99.99
2022-07-30T03:16:59.474Z,99.99
2022-07-30T03:18:00.419Z,99.99
2022-07-30T03:19:01.801Z,99.99
2022-07-30T03:20:00.208Z,99.99
2022-07-30T03:21:02.376Z,99.99
2022-07-30T03:22:02.562Z,99.99
2022-07-30T03:23:03.009Z,99.99
2022-07-30T03:24:02.955Z,99.99
2022-07-30T03:25:03.615Z,99.99
2022-07-30T03:26:03.834Z,99.99
2022-07-30T03:27:04.279Z,99.99
2022-07-30T03:28:04.577Z,99.99
2022-07-30T03:29:04.428Z,99.99
2022-07-30T03:30:05.080Z,99.99
2022-07-30T03:31:05.408Z,99.99
2022-07-30T03:32:03.822Z,99.99
2022-07-30T03:33:06.146Z,99.99
2022-07-30T03:34:06.428Z,99.99
2022-07-30T03:35:08.676Z,99.99
2022-07-30T03:36:07.778Z,99.99
2022-07-30T03:37:05.316Z,99.99
2022-07-30T03:38:05.641Z,99.99
2022-07-30T03:39:05.972Z,99.99
2022-07-30T03:40:08.149Z,99.99
2022-07-30T03:41:08.328Z,99.99
2022-07-30T03:42:06.865Z,99.99
2022-07-30T03:43:18.281Z,99.99
2022-07-30T03:44:08.474Z,99.99
2022-07-30T03:45:09.666Z,99.99
2022-07-30T03:46:08.114Z,99.99
2022-07-30T03:47:08.316Z,99.99
2022-07-30T03:48:08.661Z,99.99
2022-07-30T03:49:09.065Z,99.99
2022-07-30T03:50:11.192Z,99.99
2022-07-30T03:51:11.386Z,99.99
2022-07-30T03:52:09.918Z,99.99
2022-07-30T03:53:14.079Z,99.99
2022-07-30T03:54:13.810Z,99.99
2022-07-30T03:55:12.436Z,99.99
2022-07-30T03:56:12.628Z,99.99
2022-07-30T03:57:15.280Z,99.99
2022-07-30T03:58:13.739Z,99.99
2022-07-30T03:59:13.958Z,99.99
2022-07-30T04:00:12.365Z,99.99
2022-07-30T04:01:14.558Z,99.99
2022-07-30T04:02:14.707Z,99.99
2022-07-30T04:03:15.300Z,99.99
2022-07-30T04:04:15.147Z,99.99
2022-07-30T04:05:13.804Z,99.99
2022-07-30T04:06:15.977Z,99.99
2022-07-30T04:07:16.165Z,99.99
2022-07-30T04:08:15.587Z,99.99
2022-07-30T04:09:16.943Z,99.99
2022-07-30T04:10:15.239Z,99.99
2022-07-30T04:11:17.411Z,99.99
2022-07-30T04:12:15.818Z,99.99
2022-07-30T04:13:17.167Z,99.99
2022-07-30T04:14:18.364Z,99.99
2022-07-30T04:16:31.727Z,99.99
2022-07-30T04:16:40.857Z,99.99
2022-07-30T04:17:18.452Z,99.99
2022-07-30T04:18:20.773Z,99.99
2022-07-30T04:19:17.956Z,99.99
2022-07-30T04:20:18.294Z,99.99
2022-07-30T04:21:20.482Z,99.99
2022-07-30T04:22:18.890Z,99.99
2022-07-30T04:23:23.065Z,99.99
2022-07-30T04:24:19.494Z,99.99
2022-07-30T04:25:24.336Z,99.99
2022-07-30T04:26:23.012Z,99.99
2022-07-30T04:27:22.194Z,99.99
2022-07-30T04:28:25.376Z,99.99
2022-07-30T04:29:24.461Z,99.99
2022-07-30T04:30:21.406Z,99.99
2022-07-30T04:31:23.651Z,99.99
2022-07-30T04:32:23.775Z,99.99
2022-07-30T04:33:23.168Z,99.99
2022-07-30T04:34:22.591Z,99.99
2022-07-30T04:35:50.098Z,99.99
2022-07-30T04:36:24.159Z,99.99
2022-07-30T04:37:25.340Z,99.99
2022-07-30T04:38:25.761Z,99.99
2022-07-30T04:39:24.052Z,99.99
2022-07-30T04:40:25.319Z,99.99
2022-07-30T04:41:26.546Z,99.99
2022-07-30T04:42:26.733Z,99.99
2022-07-30T04:43:26.740Z,99.99
2022-07-30T04:44:25.520Z,99.99
2022-07-30T04:45:25.859Z,99.99
2022-07-30T04:46:28.317Z,99.99
2022-07-30T04:47:27.976Z,99.99
2022-07-30T04:48:27.616Z,99.99
2022-07-30T04:49:27.073Z,99.99
2022-07-30T04:50:27.258Z,99.99
2022-07-30T04:51:27.671Z,99.99
2022-07-30T04:52:29.788Z,99.99
2022-07-30T04:53:29.672Z,99.99
2022-07-30T04:54:28.458Z,99.99
2022-07-30T04:55:28.824Z,99.99
2022-07-30T04:56:29.054Z,99.99
2022-07-30T04:57:29.279Z,99.99
2022-07-30T04:58:31.521Z,99.99
2022-07-30T04:59:29.830Z,99.99
2022-07-30T05:00:32.348Z,99.99
2022-07-30T05:01:34.059Z,99.99
2022-07-30T05:02:33.489Z,99.99
2022-07-30T05:03:33.864Z,99.99
2022-07-30T05:04:32.888Z,99.99
2022-07-30T05:05:31.379Z,99.99
2022-07-30T05:06:33.492Z,99.99
2022-07-30T05:07:31.789Z,99.99
2022-07-30T05:08:35.995Z,99.99
2022-07-30T05:09:34.219Z,99.99
2022-07-30T05:10:34.407Z,99.99
2022-07-30T05:11:34.585Z,99.99
2022-07-30T05:12:33.247Z,99.99
2022-07-30T05:13:38.526Z,99.99
2022-07-30T05:14:33.746Z,99.99
2022-07-30T05:15:37.037Z,99.99
2022-07-30T05:16:34.325Z,99.99
2022-07-30T05:17:34.548Z,99.99
2022-07-30T05:18:38.708Z,99.99
2022-07-30T05:19:35.024Z,99.99
2022-07-30T05:20:37.209Z,99.99
2022-07-30T05:21:35.505Z,99.99
2022-07-30T05:22:37.658Z,99.99
2022-07-30T05:23:38.935Z,99.99
2022-07-30T05:24:36.266Z,99.99
2022-07-30T05:25:38.457Z,99.99
2022-07-30T05:26:36.760Z,99.99
2022-07-30T05:27:40.521Z,99.99
2022-07-30T05:28:39.136Z,99.99
2022-07-30T05:29:39.286Z,99.99
2022-07-30T05:30:39.643Z,99.99
2022-07-30T05:31:39.656Z,99.99
2022-07-30T05:32:39.846Z,99.99
2022-07-30T05:33:42.481Z,99.99
2022-07-30T05:34:40.703Z,99.99
2022-07-30T05:35:40.873Z,99.99
2022-07-30T05:36:41.046Z,99.99
2022-07-30T05:37:41.725Z,99.99
2022-07-30T05:38:41.887Z,99.99
2022-07-30T05:40:02.188Z,99.99
2022-07-30T05:40:41.610Z,99.99
2022-07-30T05:41:42.779Z,99.99
2022-07-30T05:42:43.034Z,99.99
2022-07-30T05:43:41.453Z,99.99
2022-07-30T05:44:43.637Z,99.99
2022-07-30T05:45:43.818Z,99.99
2022-07-30T05:46:44.039Z,99.99
2022-07-30T05:47:44.191Z,99.99
2022-07-30T05:48:44.443Z,99.99
2022-07-30T05:49:45.064Z,99.99
2022-07-30T05:50:45.243Z,99.99
2022-07-30T05:51:45.424Z,99.99
2022-07-30T05:52:45.613Z,99.99
2022-07-30T05:53:44.271Z,99.99
2022-07-30T05:54:44.625Z,99.99
2022-07-30T05:55:46.802Z,99.99
2022-07-30T05:56:45.101Z,99.99
2022-07-30T05:57:47.282Z,99.99
2022-07-30T05:58:45.583Z,99.99
2022-07-30T05:59:45.810Z,99.99
2022-07-30T06:00:48.005Z,99.99
2022-07-30T06:01:48.241Z,99.99
2022-07-30T06:02:48.354Z,99.99
2022-07-30T06:03:49.015Z,99.99
2022-07-30T06:04:49.205Z,99.99
2022-07-30T06:05:49.337Z,99.99
2022-07-30T06:06:49.496Z,99.99
2022-07-30T06:07:48.175Z,99.99
2022-07-30T06:08:50.363Z,99.99
2022-07-30T06:09:50.517Z,99.99
2022-07-30T06:10:50.687Z,99.99
2022-07-30T06:11:50.875Z,99.99
2022-07-30T06:12:49.540Z,99.99
2022-07-30T06:13:49.764Z,99.99
2022-07-30T06:14:51.928Z,99.99
2022-07-30T06:15:52.172Z,99.99
2022-07-30T06:16:50.612Z,99.99
2022-07-30T06:17:52.060Z,99.99
2022-07-30T06:18:54.040Z,99.99
2022-07-30T06:19:51.336Z,99.99
2022-07-30T06:20:51.689Z,99.99
2022-07-30T06:22:05.644Z,99.99
2022-07-30T06:22:55.007Z,99.99
2022-07-30T06:23:52.441Z,99.99
2022-07-30T06:24:52.792Z,99.99
2022-07-30T06:25:53.022Z,99.99
2022-07-30T06:26:53.368Z,99.99
2022-07-30T06:27:55.581Z,99.99
2022-07-30T06:28:53.876Z,99.99
2022-07-30T06:29:54.203Z,99.99
2022-07-30T06:30:54.430Z,99.99
2022-07-30T06:31:56.547Z,99.99
2022-07-30T06:32:54.975Z,99.99
2022-07-30T06:33:55.198Z,99.99
2022-07-30T06:35:03.967Z,99.99
2022-07-30T06:35:56.768Z,99.99
2022-07-30T06:36:58.203Z,99.99
2022-07-30T06:38:05.723Z,99.99
2022-07-30T06:38:59.554Z,99.99
2022-07-30T06:39:58.726Z,99.99
2022-07-30T06:41:02.146Z,99.99
2022-07-30T06:42:00.478Z,99.99
2022-07-30T06:42:57.915Z,99.99
2022-07-30T06:44:00.094Z,99.99
2022-07-30T06:44:58.391Z,99.99
2022-07-30T06:45:59.675Z,99.99
2022-07-30T06:47:05.285Z,99.99
2022-07-30T06:48:02.177Z,99.99
2022-07-30T06:49:01.375Z,99.99
2022-07-30T06:50:00.810Z,99.89
2022-07-30T06:51:00.107Z,99.79
2022-07-30T06:52:00.333Z,99.79
2022-07-30T06:53:02.519Z,99.79
2022-07-30T06:54:02.675Z,99.74
2022-07-30T06:55:01.112Z,99.85
2022-07-30T06:56:03.294Z,99.44
2022-07-30T06:57:01.839Z,99.44
2022-07-30T06:58:03.786Z,99.24
2022-07-30T06:59:02.086Z,98.64
2022-07-30T07:00:02.318Z,98.84
2022-07-30T07:01:04.568Z,98.84
2022-07-30T07:02:03.829Z,99.04
2022-07-30T07:03:11.512Z,98.64
2022-07-30T07:04:05.250Z,98.33
2022-07-30T07:05:03.793Z,98.44
2022-07-30T07:06:05.968Z,98.33
2022-07-30T07:07:12.654Z,98.44
2022-07-30T07:08:06.496Z,98.54
2022-07-30T07:09:04.924Z,98.74
2022-07-30T07:10:05.150Z,98.74
2022-07-30T07:11:07.343Z,98.84
2022-07-30T07:12:05.627Z,98.54
2022-07-30T07:13:07.911Z,98.44
2022-07-30T07:14:06.251Z,98.33
2022-07-30T07:15:06.477Z,98.59
2022-07-30T07:16:06.727Z,98.29
2022-07-30T07:17:07.356Z,98.19
2022-07-30T07:18:11.104Z,98.19
2022-07-30T07:19:07.432Z,98.19
2022-07-30T07:20:07.648Z,98.39
2022-07-30T07:21:07.883Z,98.29
2022-07-30T07:22:10.055Z,98.29
2022-07-30T07:23:12.214Z,97.78
2022-07-30T07:24:09.569Z,97.99
2022-07-30T07:25:10.984Z,98.09
2022-07-30T07:26:09.285Z,97.99
2022-07-30T07:27:15.302Z,97.58
2022-07-30T07:28:13.230Z,97.89
2022-07-30T07:29:10.884Z,97.78
2022-07-30T07:30:12.228Z,97.49
2022-07-30T07:31:10.669Z,97.69
2022-07-30T07:32:10.828Z,97.58
2022-07-30T07:33:11.035Z,97.64
2022-07-30T07:34:16.813Z,97.84
2022-07-30T07:35:14.472Z,97.49
2022-07-30T07:36:11.777Z,97.89
2022-07-30T07:37:12.010Z,97.94
2022-07-30T07:38:14.174Z,97.94
2022-07-30T07:39:14.918Z,97.89
2022-07-30T07:40:14.607Z,97.99
2022-07-30T07:41:14.794Z,98.09
2022-07-30T07:42:13.332Z,97.99
2022-07-30T07:43:15.529Z,98.09
2022-07-30T07:44:17.728Z,98.13
2022-07-30T07:45:14.174Z,98.33
2022-07-30T07:46:16.435Z,98.33
2022-07-30T07:47:16.571Z,98.33
2022-07-30T07:48:16.792Z,98.44
2022-07-30T07:49:17.048Z,98.54
2022-07-30T07:50:17.631Z,98.74
2022-07-30T07:51:17.810Z,99.04
2022-07-30T07:52:17.250Z,99.04
2022-07-30T07:53:18.566Z,99.24
2022-07-30T07:54:22.239Z,99.14
2022-07-30T07:55:18.823Z,99.44
2022-07-30T07:56:17.517Z,99.34
2022-07-30T07:57:20.318Z,99.54
2022-07-30T07:58:26.092Z,99.74
2022-07-30T07:59:19.326Z,99.95
2022-07-30T08:00:18.599Z,99.99
2022-07-30T08:01:18.870Z,99.99
2022-07-30T08:02:19.152Z,99.99
2022-07-30T08:03:23.285Z,99.99
2022-07-30T08:04:19.720Z,99.99
2022-07-30T08:05:19.962Z,99.85
2022-07-30T08:06:20.172Z,99.85
2022-07-30T08:07:22.356Z,99.99
2022-07-30T08:08:22.627Z,99.80
2022-07-30T08:09:22.711Z,99.99
2022-07-30T08:10:23.485Z,99.99
2022-07-30T08:11:23.546Z,99.90
2022-07-30T08:12:21.954Z,99.80
2022-07-30T08:13:52.247Z,99.70
2022-07-30T08:14:25.303Z,99.70
2022-07-30T08:15:24.497Z,99.80
2022-07-30T08:16:24.698Z,99.60
2022-07-30T08:17:25.473Z,99.70
2022-07-30T08:18:23.827Z,99.80
2022-07-30T08:19:26.020Z,99.90
2022-07-30T08:20:28.678Z,99.99
2022-07-30T08:21:24.592Z,99.80
2022-07-30T08:22:28.756Z,99.90
2022-07-30T08:23:27.000Z,99.60
2022-07-30T08:24:27.161Z,99.10
2022-07-30T08:25:27.353Z,99.30
2022-07-30T08:26:26.018Z,99.10
2022-07-30T08:27:27.074Z,99.19
2022-07-30T08:28:35.765Z,99.15
2022-07-30T08:29:29.681Z,98.94
2022-07-30T08:30:27.054Z,98.65
2022-07-30T08:31:27.238Z,98.54
2022-07-30T08:32:28.393Z,98.65
2022-07-30T08:33:27.824Z,98.44
2022-07-30T08:34:30.009Z,98.14
2022-07-30T08:35:28.316Z,97.99
2022-07-30T08:36:28.552Z,97.89
2022-07-30T08:37:28.821Z,97.89
2022-07-30T08:38:30.962Z,97.95
2022-07-30T08:39:31.156Z,97.95
2022-07-30T08:40:29.580Z,97.55
2022-07-30T08:41:31.761Z,97.55
2022-07-30T08:42:30.087Z,96.94
2022-07-30T08:43:34.215Z,96.94
2022-07-30T08:44:30.545Z,97.00
2022-07-30T08:45:35.216Z,96.89
2022-07-30T08:46:32.969Z,96.19
2022-07-30T08:47:31.285Z,95.39
2022-07-30T08:48:31.527Z,95.69
2022-07-30T08:49:31.763Z,95.89
2022-07-30T08:50:33.943Z,95.59
2022-07-30T08:51:32.249Z,95.75
2022-07-30T08:52:36.392Z,95.64
2022-07-30T08:53:32.726Z,95.44
2022-07-30T08:54:32.965Z,95.04
2022-07-30T08:55:33.204Z,94.84
2022-07-30T08:56:33.574Z,94.13
2022-07-30T08:57:35.633Z,94.20
2022-07-30T08:58:34.085Z,93.69
2022-07-30T09:00:00.228Z,93.79
2022-07-30T09:00:35.557Z,93.85
2022-07-30T09:01:36.730Z,93.44
2022-07-30T09:02:35.270Z,94.05
2022-07-30T09:03:35.397Z,92.90
2022-07-30T09:04:37.591Z,92.44
2022-07-30T09:05:35.906Z,93.35
2022-07-30T09:06:38.101Z,91.94
2022-07-30T09:07:40.344Z,92.14
2022-07-30T09:08:36.652Z,92.29
2022-07-30T09:09:36.893Z,92.58
2022-07-30T09:10:37.137Z,92.69
2022-07-30T09:11:39.319Z,93.19
2022-07-30T09:12:40.668Z,93.15
2022-07-30T09:13:37.984Z,92.24
2022-07-30T09:14:39.204Z,91.64
2022-07-30T09:15:39.364Z,92.24
2022-07-30T09:16:38.848Z,92.84
2022-07-30T09:17:40.556Z,92.34
2022-07-30T09:18:41.277Z,92.24
2022-07-30T09:19:39.592Z,91.64
2022-07-30T09:20:39.836Z,91.03
2022-07-30T09:21:40.071Z,91.24
2022-07-30T09:22:44.276Z,91.30
2022-07-30T09:23:42.494Z,92.30
2022-07-30T09:24:40.927Z,91.05
2022-07-30T09:25:43.107Z,90.35
2022-07-30T09:26:41.424Z,89.81
2022-07-30T09:27:43.586Z,90.31
2022-07-30T09:28:43.647Z,89.11
2022-07-30T09:29:43.805Z,88.30
2022-07-30T09:30:44.476Z,88.44
2022-07-30T09:31:43.789Z,88.75
2022-07-30T09:32:43.875Z,88.84
2022-07-30T09:33:45.274Z,89.50
2022-07-30T09:34:43.540Z,88.04
2022-07-30T09:35:45.720Z,88.84
2022-07-30T09:36:44.026Z,88.64
2022-07-30T09:37:45.190Z,88.64
2022-07-30T09:38:44.531Z,88.10
2022-07-30T09:39:59.297Z,88.80
2022-07-30T09:40:47.892Z,88.10
2022-07-30T09:41:45.340Z,88.16
2022-07-30T09:42:49.502Z,86.96
2022-07-30T09:43:47.352Z,86.82
2022-07-30T09:44:48.039Z,86.91
2022-07-30T09:45:56.794Z,85.47
2022-07-30T09:46:48.166Z,86.37
2022-07-30T09:47:49.094Z,85.57
2022-07-30T09:48:49.243Z,84.07
2022-07-30T09:49:49.355Z,83.83
2022-07-30T09:50:50.161Z,84.59
2022-07-30T09:51:56.101Z,83.49
2022-07-30T09:52:51.389Z,83.53
2022-07-30T09:53:50.570Z,83.67
2022-07-30T09:54:52.747Z,84.07
2022-07-30T09:55:49.444Z,84.21
2022-07-30T09:56:53.777Z,84.71
2022-07-30T09:57:56.354Z,84.31
2022-07-30T09:58:51.193Z,85.77
2022-07-30T09:59:52.374Z,84.33
2022-07-30T10:00:50.760Z,82.69
2022-07-30T10:01:55.000Z,81.19
2022-07-30T10:02:56.118Z,81.59
2022-07-30T10:03:51.482Z,81.19
2022-07-30T10:04:51.719Z,81.85
2022-07-30T10:05:53.898Z,81.95
2022-07-30T10:06:52.347Z,81.65
2022-07-30T10:07:56.500Z,80.09
2022-07-30T10:08:52.887Z,80.95
2022-07-30T10:09:53.124Z,80.99
2022-07-30T10:10:55.315Z,81.33
2022-07-30T10:11:53.631Z,82.73
2022-07-30T10:12:54.885Z,82.43
2022-07-30T10:13:54.202Z,82.63
2022-07-30T10:14:54.518Z,82.59
2022-07-30T10:15:56.704Z,82.19
2022-07-30T10:16:56.863Z,82.29
2022-07-30T10:17:57.218Z,81.89
2022-07-30T10:18:55.542Z,81.39
2022-07-30T10:19:57.727Z,81.85
2022-07-30T10:20:58.906Z,80.76
2022-07-30T10:21:56.298Z,82.15
2022-07-30T10:23:00.447Z,81.41
2022-07-30T10:23:59.661Z,79.72
2022-07-30T10:24:58.865Z,79.88
2022-07-30T10:25:59.052Z,79.24
2022-07-30T10:26:59.931Z,77.55
2022-07-30T10:28:03.139Z,77.08
2022-07-30T10:29:00.240Z,77.56
2022-07-30T10:30:04.164Z,78.69
2022-07-30T10:30:59.882Z,79.29
2022-07-30T10:32:01.007Z,79.49
2022-07-30T10:33:01.497Z,79.89
2022-07-30T10:34:01.570Z,80.03
2022-07-30T10:35:01.753Z,80.09
2022-07-30T10:36:02.798Z,79.75
2022-07-30T10:37:04.532Z,80.21
2022-07-30T10:38:02.690Z,79.17
2022-07-30T10:39:02.927Z,78.58
2022-07-30T10:40:03.128Z,77.94
2022-07-30T10:41:03.307Z,77.14
2022-07-30T10:42:03.492Z,78.14
2022-07-30T10:43:03.014Z,77.14
2022-07-30T10:44:02.410Z,76.31
2022-07-30T10:45:04.593Z,76.47
2022-07-30T10:46:02.929Z,75.97
2022-07-30T10:47:06.882Z,75.87
2022-07-30T10:48:04.323Z,74.71
2022-07-30T10:49:05.746Z,74.37
2022-07-30T10:50:06.888Z,75.37
2022-07-30T10:51:04.387Z,74.01
2022-07-30T10:52:06.562Z,75.07
2022-07-30T10:53:06.913Z,73.68
2022-07-30T10:54:07.000Z,74.54
2022-07-30T10:55:07.356Z,74.50
2022-07-30T10:56:05.675Z,72.41
2022-07-30T10:57:07.858Z,73.17
2022-07-30T10:58:10.036Z,71.18
2022-07-30T10:59:07.855Z,66.91
2022-07-30T11:00:08.646Z,65.46
2022-07-30T11:01:18.421Z,66.65
2022-07-30T11:02:08.225Z,66.58
2022-07-30T11:03:14.023Z,66.36
2022-07-30T11:04:08.825Z,64.74
2022-07-30T11:05:08.116Z,65.30
2022-07-30T11:06:10.284Z,67.18
2022-07-30T11:07:08.599Z,67.41
2022-07-30T11:08:08.858Z,63.98
2022-07-30T11:09:09.096Z,64.15
2022-07-30T11:10:09.859Z,63.13
2022-07-30T11:11:19.387Z,61.75
2022-07-30T11:12:11.197Z,63.79
2022-07-30T11:13:10.222Z,64.54
2022-07-30T11:14:10.467Z,66.75
2022-07-30T11:15:18.667Z,65.56
2022-07-30T11:16:13.890Z,65.56
2022-07-30T11:17:11.201Z,63.85
2022-07-30T11:18:12.745Z,63.33
2022-07-30T11:19:55.473Z,62.94
2022-07-30T11:20:13.041Z,60.12
2022-07-30T11:21:14.239Z,61.37
2022-07-30T11:22:12.667Z,59.26
2022-07-30T11:23:14.851Z,59.81
2022-07-30T11:24:13.171Z,60.04
2022-07-30T11:25:14.345Z,61.05
2022-07-30T11:26:17.556Z,61.48
2022-07-30T11:27:15.807Z,62.29
2022-07-30T11:28:16.078Z,65.53
2022-07-30T11:29:16.169Z,65.89
2022-07-30T11:30:14.866Z,67.83
2022-07-30T11:31:15.210Z,68.46
2022-07-30T11:32:15.432Z,69.69
2022-07-30T11:33:18.743Z,71.64
2022-07-30T11:34:17.798Z,71.31
2022-07-30T11:35:16.248Z,70.39
2022-07-30T11:36:16.492Z,69.69
2022-07-30T11:37:18.703Z,70.06
2022-07-30T11:38:19.946Z,70.42
2022-07-30T11:39:17.331Z,70.81
2022-07-30T11:40:25.915Z,70.51
2022-07-30T11:41:18.828Z,69.03
2022-07-30T11:42:21.952Z,69.92
2022-07-30T11:43:20.291Z,70.55
2022-07-30T11:44:19.647Z,71.41
2022-07-30T11:45:20.836Z,71.98
2022-07-30T11:46:29.262Z,72.87
2022-07-30T11:47:24.526Z,72.31
2022-07-30T11:48:19.744Z,73.94
2022-07-30T11:49:22.014Z,74.04
2022-07-30T11:50:20.292Z,73.94
2022-07-30T11:51:22.493Z,75.16
2022-07-30T11:52:20.805Z,75.80
2022-07-30T11:53:23.124Z,75.60
2022-07-30T11:54:21.304Z,75.67
2022-07-30T11:55:25.503Z,74.93
2022-07-30T11:56:21.839Z,75.93
2022-07-30T11:57:24.022Z,73.44
2022-07-30T11:58:23.366Z,73.14
2022-07-30T11:59:24.549Z,73.21
2022-07-30T12:00:24.857Z,73.90
2022-07-30T12:01:24.938Z,73.80
2022-07-30T12:02:25.116Z,74.20
2022-07-30T12:03:25.817Z,74.37
2022-07-30T12:04:25.973Z,74.00
2022-07-30T12:05:28.125Z,74.24
2022-07-30T12:06:26.339Z,75.73
2022-07-30T12:07:26.544Z,74.93
2022-07-30T12:08:35.355Z,74.63
2022-07-30T12:09:27.466Z,74.97
2022-07-30T12:10:29.670Z,74.93
2022-07-30T12:11:27.913Z,74.77
2022-07-30T12:12:26.324Z,75.07
2022-07-30T12:13:44.133Z,75.10
2022-07-30T12:14:29.765Z,75.74
2022-07-30T12:15:30.022Z,75.94
2022-07-30T12:16:29.145Z,76.64
2022-07-30T12:17:27.610Z,76.37
2022-07-30T12:18:27.854Z,77.31
2022-07-30T12:19:30.024Z,78.27
2022-07-30T12:20:30.306Z,77.91
2022-07-30T12:21:28.661Z,78.70
2022-07-30T12:22:28.893Z,77.11
2022-07-30T12:23:31.087Z,78.50
2022-07-30T12:24:31.260Z,79.16
2022-07-30T12:25:31.618Z,77.91
2022-07-30T12:26:31.653Z,79.34
2022-07-30T12:27:31.862Z,79.84
2022-07-30T12:28:32.549Z,78.94
2022-07-30T12:29:32.763Z,79.04
2022-07-30T12:30:33.186Z,78.34
2022-07-30T12:31:33.124Z,78.48
2022-07-30T12:32:33.800Z,78.88
2022-07-30T12:33:33.992Z,79.78
2022-07-30T12:34:34.176Z,80.21
2022-07-30T12:35:33.729Z,79.52
2022-07-30T12:36:33.024Z,80.11
2022-07-30T12:37:35.225Z,80.02
2022-07-30T12:38:33.529Z,80.45
2022-07-30T12:39:33.773Z,81.01
2022-07-30T12:40:35.991Z,79.91
2022-07-30T12:41:36.231Z,79.35
2022-07-30T12:42:34.541Z,79.96
2022-07-30T12:43:34.780Z,80.15
2022-07-30T12:44:35.022Z,80.15
2022-07-30T12:45:51.746Z,80.05
2022-07-30T12:46:38.443Z,80.41
2022-07-30T12:47:35.760Z,80.51
2022-07-30T12:48:35.997Z,79.72
2022-07-30T12:49:36.846Z,79.08
2022-07-30T12:50:37.535Z,78.52
2022-07-30T12:51:38.726Z,79.32
2022-07-30T12:52:38.893Z,79.41
2022-07-30T12:53:37.448Z,79.68
2022-07-30T12:54:37.680Z,79.17
2022-07-30T12:55:37.995Z,78.18